sensor_id;sensor_type;location;lat;lon;timestamp;pressure;altitude;pressure_sealevel;temperature;humidity
69411;BME280;56604;48.652;9.194;2022-12-20T00:01:20;96816.84;;;4.88;81.73
69411;BME280;56604;48.652;9.194;2022-12-20T00:03:49;96824.06;;;4.92;81.60
69411;BME280;56604;48.652;9.194;2022-12-20T00:06:15;96819.25;;;4.96;81.92
69411;BME280;56604;48.652;9.194;2022-12-20T00:08:41;96815.25;;;4.93;81.83
69411;BME280;56604;48.652;9.194;2022-12-20T00:11:07;96822.44;;;4.91;81.41
69411;BME280;56604;48.652;9.194;2022-12-20T00:13:34;96818.25;;;4.90;81.45
69411;BME280;56604;48.652;9.194;2022-12-20T00:16:11;96820.44;;;4.93;81.28
69411;BME280;56604;48.652;9.194;2022-12-20T00:18:38;96810.44;;;4.90;80.51
69411;BME280;56604;48.652;9.194;2022-12-20T00:21:05;96807.78;;;4.77;81.48
69411;BME280;56604;48.652;9.194;2022-12-20T00:23:32;96801.59;;;4.78;81.23
69411;BME280;56604;48.652;9.194;2022-12-20T00:26:05;96794.34;;;4.54;82.67
69411;BME280;56604;48.652;9.194;2022-12-20T00:28:31;96795.13;;;4.54;83.08
69411;BME280;56604;48.652;9.194;2022-12-20T00:30:57;96793.09;;;4.43;83.89
69411;BME280;56604;48.652;9.194;2022-12-20T00:33:23;96796.88;;;4.40;83.32
69411;BME280;56604;48.652;9.194;2022-12-20T00:35:48;96792.31;;;4.49;83.39
69411;BME280;56604;48.652;9.194;2022-12-20T00:38:13;96797.16;;;4.59;82.75
69411;BME280;56604;48.652;9.194;2022-12-20T00:40:39;96792.34;;;4.56;82.58
69411;BME280;56604;48.652;9.194;2022-12-20T00:43:04;96792.34;;;4.56;82.53
69411;BME280;56604;48.652;9.194;2022-12-20T00:45:30;96790.72;;;4.48;83.40
69411;BME280;56604;48.652;9.194;2022-12-20T00:47:55;96782.69;;;4.36;83.37
69411;BME280;56604;48.652;9.194;2022-12-20T00:50:21;96787.88;;;4.36;83.58
69411;BME280;56604;48.652;9.194;2022-12-20T00:52:46;96780.06;;;4.36;84.38
69411;BME280;56604;48.652;9.194;2022-12-20T00:55:11;96791.50;;;4.48;83.55
69411;BME280;56604;48.652;9.194;2022-12-20T00:57:36;96776.72;;;4.62;83.89
69411;BME280;56604;48.652;9.194;2022-12-20T01:00:03;96773.94;;;4.77;83.33
69411;BME280;56604;48.652;9.194;2022-12-20T01:02:28;96772.56;;;4.81;82.71
69411;BME280;56604;48.652;9.194;2022-12-20T01:04:54;96774.56;;;4.92;83.14
69411;BME280;56604;48.652;9.194;2022-12-20T01:07:19;96777.56;;;5.09;82.53
69411;BME280;56604;48.652;9.194;2022-12-20T01:09:44;96766.53;;;5.21;81.40
69411;BME280;56604;48.652;9.194;2022-12-20T01:12:09;96784.41;;;5.24;80.84
69411;BME280;56604;48.652;9.194;2022-12-20T01:17:03;96804.81;;;5.20;80.34
69411;BME280;56604;48.652;9.194;2022-12-20T01:19:28;96803.22;;;5.19;80.84
69411;BME280;56604;48.652;9.194;2022-12-20T01:21:53;96795.00;;;5.22;80.24
69411;BME280;56604;48.652;9.194;2022-12-20T01:24:19;96800.03;;;5.10;81.48
69411;BME280;56604;48.652;9.194;2022-12-20T01:26:45;96794.00;;;4.96;81.08
69411;BME280;56604;48.652;9.194;2022-12-20T01:29:11;96797.59;;;5.02;82.01
69411;BME280;56604;48.652;9.194;2022-12-20T01:31:36;96799.19;;;5.03;82.10
69411;BME280;56604;48.652;9.194;2022-12-20T01:34:02;96806.03;;;5.11;81.31
69411;BME280;56604;48.652;9.194;2022-12-20T01:36:33;96795.81;;;5.16;80.84
69411;BME280;56604;48.652;9.194;2022-12-20T01:39:07;96792.81;;;5.19;80.59
69411;BME280;56604;48.652;9.194;2022-12-20T01:41:34;96792.19;;;5.17;80.86
69411;BME280;56604;48.652;9.194;2022-12-20T01:44:47;96797.03;;;5.27;80.18
69411;BME280;56604;48.652;9.194;2022-12-20T01:46:51;96786.19;;;5.30;79.59
69411;BME280;56604;48.652;9.194;2022-12-20T01:49:43;96784.78;;;5.27;80.49
69411;BME280;56604;48.652;9.194;2022-12-20T01:52:13;96783.97;;;5.20;80.80
69411;BME280;56604;48.652;9.194;2022-12-20T01:54:49;96780.16;;;5.29;80.90
69411;BME280;56604;48.652;9.194;2022-12-20T01:57:30;96783.16;;;5.26;80.34
69411;BME280;56604;48.652;9.194;2022-12-20T01:59:57;96775.16;;;5.28;80.05
69411;BME280;56604;48.652;9.194;2022-12-20T02:02:23;96777.53;;;5.29;80.90
69411;BME280;56604;48.652;9.194;2022-12-20T02:04:49;96779.97;;;5.24;81.17
69411;BME280;56604;48.652;9.194;2022-12-20T02:07:18;96770.38;;;5.18;81.07
69411;BME280;56604;48.652;9.194;2022-12-20T02:09:47;96754.31;;;5.14;81.03
69411;BME280;56604;48.652;9.194;2022-12-20T02:12:13;96764.72;;;5.14;81.35
69411;BME280;56604;48.652;9.194;2022-12-20T02:15:38;96755.94;;;5.15;81.23
69411;BME280;56604;48.652;9.194;2022-12-20T02:17:47;96763.72;;;5.22;81.10
69411;BME280;56604;48.652;9.194;2022-12-20T02:23:27;96750.50;;;5.17;80.80
69411;BME280;56604;48.652;9.194;2022-12-20T02:26:30;96743.69;;;5.16;81.58
69411;BME280;56604;48.652;9.194;2022-12-20T02:31:39;96755.50;;;5.25;81.12
69411;BME280;56604;48.652;9.194;2022-12-20T02:34:07;96744.88;;;5.20;81.05
69411;BME280;56604;48.652;9.194;2022-12-20T02:36:34;96742.47;;;5.25;80.78
69411;BME280;56604;48.652;9.194;2022-12-20T02:38:59;96736.66;;;5.23;81.41
69411;BME280;56604;48.652;9.194;2022-12-20T02:41:29;96742.88;;;5.22;80.69
69411;BME280;56604;48.652;9.194;2022-12-20T02:44:02;96743.44;;;5.37;80.55
69411;BME280;56604;48.652;9.194;2022-12-20T02:46:48;96746.25;;;5.43;80.73
69411;BME280;56604;48.652;9.194;2022-12-20T02:49:17;96750.25;;;5.52;80.47
69411;BME280;56604;48.652;9.194;2022-12-20T02:51:46;96750.25;;;5.52;80.17
69411;BME280;56604;48.652;9.194;2022-12-20T02:54:13;96739.84;;;5.45;79.88
69411;BME280;56604;48.652;9.194;2022-12-20T02:56:55;96733.44;;;5.41;80.31
69411;BME280;56604;48.652;9.194;2022-12-20T02:59:36;96733.03;;;5.37;80.02
69411;BME280;56604;48.652;9.194;2022-12-20T03:02:04;96720.97;;;5.50;80.27
69411;BME280;56604;48.652;9.194;2022-12-20T03:04:34;96724.56;;;5.49;80.65
69411;BME280;56604;48.652;9.194;2022-12-20T03:07:02;96714.34;;;5.54;79.76
69411;BME280;56604;48.652;9.194;2022-12-20T03:09:30;96715.72;;;5.63;80.18
69411;BME280;56604;48.652;9.194;2022-12-20T03:11:56;96706.53;;;5.54;79.99
69411;BME280;56604;48.652;9.194;2022-12-20T03:14:22;96703.72;;;5.55;79.94
69411;BME280;56604;48.652;9.194;2022-12-20T03:16:48;96717.13;;;5.59;80.33
69411;BME280;56604;48.652;9.194;2022-12-20T03:19:13;96714.09;;;5.69;79.77
69411;BME280;56604;48.652;9.194;2022-12-20T03:21:38;96693.25;;;5.62;79.45
69411;BME280;56604;48.652;9.194;2022-12-20T03:24:04;96706.91;;;5.64;79.74
69411;BME280;56604;48.652;9.194;2022-12-20T03:26:29;96696.84;;;5.68;79.43
69411;BME280;56604;48.652;9.194;2022-12-20T03:28:54;96697.25;;;5.64;79.84
69411;BME280;56604;48.652;9.194;2022-12-20T03:31:20;96696.88;;;5.61;80.24
69411;BME280;56604;48.652;9.194;2022-12-20T03:33:46;96691.66;;;5.61;79.99
69411;BME280;56604;48.652;9.194;2022-12-20T03:36:11;96681.66;;;5.58;79.89
69411;BME280;56604;48.652;9.194;2022-12-20T03:38:36;96693.28;;;5.49;79.83
69411;BME280;56604;48.652;9.194;2022-12-20T03:41:02;96702.09;;;5.54;80.51
69411;BME280;56604;48.652;9.194;2022-12-20T03:43:27;96694.13;;;5.43;80.42
69411;BME280;56604;48.652;9.194;2022-12-20T03:45:52;96701.72;;;5.51;80.71
69411;BME280;56604;48.652;9.194;2022-12-20T03:48:17;96693.69;;;5.46;80.80
69411;BME280;56604;48.652;9.194;2022-12-20T03:50:43;96692.72;;;5.47;80.70
69411;BME280;56604;48.652;9.194;2022-12-20T03:53:08;96684.63;;;5.55;80.72
69411;BME280;56604;48.652;9.194;2022-12-20T03:55:33;96682.81;;;5.62;80.23
69411;BME280;56604;48.652;9.194;2022-12-20T03:57:59;96687.63;;;5.65;80.13
69411;BME280;56604;48.652;9.194;2022-12-20T04:00:24;96690.81;;;5.74;79.69
69411;BME280;56604;48.652;9.194;2022-12-20T04:02:50;96684.38;;;5.76;79.17
69411;BME280;56604;48.652;9.194;2022-12-20T04:05:17;96683.53;;;5.82;79.32
69411;BME280;56604;48.652;9.194;2022-12-20T04:07:42;96688.38;;;5.79;79.41
69411;BME280;56604;48.652;9.194;2022-12-20T04:10:09;96696.41;;;5.77;79.09
69411;BME280;56604;48.652;9.194;2022-12-20T04:12:35;96680.75;;;5.77;79.52
69411;BME280;56604;48.652;9.194;2022-12-20T04:15:00;96680.34;;;5.80;79.25
69411;BME280;56604;48.652;9.194;2022-12-20T04:17:25;96661.50;;;5.78;78.95
69411;BME280;56604;48.652;9.194;2022-12-20T04:19:51;96645.44;;;5.81;79.08
69411;BME280;56604;48.652;9.194;2022-12-20T04:22:16;96656.66;;;5.82;78.70
69411;BME280;56604;48.652;9.194;2022-12-20T04:24:41;96657.44;;;5.89;78.92
69411;BME280;56604;48.652;9.194;2022-12-20T04:27:06;96664.66;;;5.94;78.95
69411;BME280;56604;48.652;9.194;2022-12-20T04:29:32;96664.66;;;5.94;78.97
69411;BME280;56604;48.652;9.194;2022-12-20T04:31:57;96656.19;;;5.92;78.52
69411;BME280;56604;48.652;9.194;2022-12-20T04:34:22;96668.25;;;5.93;79.10
69411;BME280;56604;48.652;9.194;2022-12-20T04:36:48;96671.47;;;5.95;78.90
69411;BME280;56604;48.652;9.194;2022-12-20T04:39:13;96672.25;;;6.02;78.34
69411;BME280;56604;48.652;9.194;2022-12-20T04:41:38;96657.44;;;5.96;78.29
69411;BME280;56604;48.652;9.194;2022-12-20T04:44:04;96652.22;;;5.89;79.07
69411;BME280;56604;48.652;9.194;2022-12-20T04:46:29;96649.84;;;5.81;78.99
69411;BME280;56604;48.652;9.194;2022-12-20T04:48:54;96663.44;;;5.90;79.12
69411;BME280;56604;48.652;9.194;2022-12-20T04:51:20;96650.22;;;5.84;78.70
69411;BME280;56604;48.652;9.194;2022-12-20T04:53:45;96653.63;;;5.85;78.88
69411;BME280;56604;48.652;9.194;2022-12-20T04:56:19;96652.69;;;5.73;79.03
69411;BME280;56604;48.652;9.194;2022-12-20T04:58:46;96658.75;;;5.67;79.66
69411;BME280;56604;48.652;9.194;2022-12-20T05:01:12;96647.16;;;5.56;79.63
69411;BME280;56604;48.652;9.194;2022-12-20T05:03:38;96639.94;;;5.58;79.62
69411;BME280;56604;48.652;9.194;2022-12-20T05:06:04;96643.19;;;5.47;80.32
69411;BME280;56604;48.652;9.194;2022-12-20T05:08:30;96637.13;;;5.53;80.52
69411;BME280;56604;48.652;9.194;2022-12-20T05:10:55;96635.88;;;5.62;80.31
69411;BME280;56604;48.652;9.194;2022-12-20T05:13:20;96639.06;;;5.71;79.62
69411;BME280;56604;48.652;9.194;2022-12-20T05:15:50;96644.66;;;5.74;79.46
69411;BME280;56604;48.652;9.194;2022-12-20T05:18:16;96639.00;;;5.77;79.93
69411;BME280;56604;48.652;9.194;2022-12-20T05:20:41;96635.38;;;5.85;78.92
69411;BME280;56604;48.652;9.194;2022-12-20T05:23:08;96633.13;;;5.89;79.07
69411;BME280;56604;48.652;9.194;2022-12-20T05:25:53;96628.94;;;5.88;79.08
69411;BME280;56604;48.652;9.194;2022-12-20T05:28:37;96628.94;;;5.88;79.69
69411;BME280;56604;48.652;9.194;2022-12-20T05:31:02;96622.94;;;5.80;78.96
69411;BME280;56604;48.652;9.194;2022-12-20T05:33:28;96625.72;;;5.92;78.62
69411;BME280;56604;48.652;9.194;2022-12-20T05:35:54;96636.59;;;5.82;79.55
69411;BME280;56604;48.652;9.194;2022-12-20T05:38:19;96625.31;;;5.89;78.88
69411;BME280;56604;48.652;9.194;2022-12-20T05:40:47;96622.56;;;5.83;78.88
69411;BME280;56604;48.652;9.194;2022-12-20T05:43:13;96624.94;;;5.85;79.35
69411;BME280;56604;48.652;9.194;2022-12-20T05:45:39;96615.94;;;5.81;79.09
69411;BME280;56604;48.652;9.194;2022-12-20T05:48:05;96613.53;;;5.79;79.43
69411;BME280;56604;48.652;9.194;2022-12-20T05:50:30;96608.25;;;5.86;78.84
69411;BME280;56604;48.652;9.194;2022-12-20T05:52:56;96605.66;;;5.86;79.09
69411;BME280;56604;48.652;9.194;2022-12-20T05:55:21;96600.41;;;5.93;78.44
69411;BME280;56604;48.652;9.194;2022-12-20T05:57:46;96610.47;;;5.96;78.63
69411;BME280;56604;48.652;9.194;2022-12-20T06:00:12;96611.44;;;5.95;78.60
69411;BME280;56604;48.652;9.194;2022-12-20T06:02:39;96608.06;;;5.88;78.59
69411;BME280;56604;48.652;9.194;2022-12-20T06:05:04;96597.63;;;5.88;78.68
69411;BME280;56604;48.652;9.194;2022-12-20T06:07:30;96593.56;;;5.92;78.64
69411;BME280;56604;48.652;9.194;2022-12-20T06:09:56;96581.56;;;5.91;78.30
69411;BME280;56604;48.652;9.194;2022-12-20T06:12:21;96587.38;;;5.93;78.69
69411;BME280;56604;48.652;9.194;2022-12-20T06:14:47;96593.78;;;5.97;78.74
69411;BME280;56604;48.652;9.194;2022-12-20T06:17:12;96599.03;;;5.90;78.71
69411;BME280;56604;48.652;9.194;2022-12-20T06:19:38;96610.25;;;5.91;78.73
69411;BME280;56604;48.652;9.194;2022-12-20T06:22:07;96595.97;;;6.00;79.30
69411;BME280;56604;48.652;9.194;2022-12-20T06:24:33;96594.31;;;6.12;79.47
69411;BME280;56604;48.652;9.194;2022-12-20T06:26:58;96596.50;;;6.84;77.52
69411;BME280;56604;48.652;9.194;2022-12-20T06:29:24;96597.16;;;6.54;76.52
69411;BME280;56604;48.652;9.194;2022-12-20T06:31:49;96598.13;;;6.35;76.79
69411;BME280;56604;48.652;9.194;2022-12-20T06:34:14;96595.03;;;6.19;77.38
69411;BME280;56604;48.652;9.194;2022-12-20T06:36:40;96609.53;;;6.15;77.53
69411;BME280;56604;48.652;9.194;2022-12-20T06:39:05;96615.59;;;6.09;77.47
69411;BME280;56604;48.652;9.194;2022-12-20T06:41:33;96619.22;;;6.08;77.98
69411;BME280;56604;48.652;9.194;2022-12-20T06:43:58;96621.69;;;5.96;78.55
69411;BME280;56604;48.652;9.194;2022-12-20T06:46:24;96618.91;;;5.84;78.77
69411;BME280;56604;48.652;9.194;2022-12-20T06:48:49;96616.56;;;5.76;79.02
69411;BME280;56604;48.652;9.194;2022-12-20T06:51:15;96610.91;;;5.79;79.28
69411;BME280;56604;48.652;9.194;2022-12-20T06:53:41;96621.34;;;5.79;79.34
69411;BME280;56604;48.652;9.194;2022-12-20T06:56:07;96618.31;;;5.89;79.07
69411;BME280;56604;48.652;9.194;2022-12-20T06:58:32;96616.50;;;5.90;79.76
69411;BME280;56604;48.652;9.194;2022-12-20T07:00:57;96614.88;;;5.89;78.99
69411;BME280;56604;48.652;9.194;2022-12-20T07:03:23;96614.06;;;5.95;79.09
69411;BME280;56604;48.652;9.194;2022-12-20T07:05:51;96607.44;;;5.99;78.52
69411;BME280;56604;48.652;9.194;2022-12-20T07:08:17;96606.41;;;6.00;78.17
69411;BME280;56604;48.652;9.194;2022-12-20T07:10:43;96617.25;;;6.03;78.65
69411;BME280;56604;48.652;9.194;2022-12-20T07:13:08;96609.19;;;6.05;78.63
69411;BME280;56604;48.652;9.194;2022-12-20T07:15:34;96613.38;;;6.06;78.29
69411;BME280;56604;48.652;9.194;2022-12-20T07:17:59;96606.38;;;6.06;78.32
69411;BME280;56604;48.652;9.194;2022-12-20T07:20:25;96609.19;;;6.05;78.02
69411;BME280;56604;48.652;9.194;2022-12-20T07:22:50;96607.19;;;6.00;78.65
69411;BME280;56604;48.652;9.194;2022-12-20T07:25:16;96610.38;;;6.09;78.16
69411;BME280;56604;48.652;9.194;2022-12-20T07:27:41;96609.78;;;6.07;78.63
69411;BME280;56604;48.652;9.194;2022-12-20T07:30:07;96613.38;;;6.13;78.00
69411;BME280;56604;48.652;9.194;2022-12-20T07:32:32;96603.50;;;6.15;77.80
69411;BME280;56604;48.652;9.194;2022-12-20T07:34:57;96610.69;;;6.19;77.81
69411;BME280;56604;48.652;9.194;2022-12-20T07:37:23;96611.28;;;6.21;77.51
69411;BME280;56604;48.652;9.194;2022-12-20T07:39:48;96608.34;;;6.11;78.05
69411;BME280;56604;48.652;9.194;2022-12-20T07:42:13;96615.19;;;6.12;78.31
69411;BME280;56604;48.652;9.194;2022-12-20T07:44:39;96611.13;;;6.16;77.88
69411;BME280;56604;48.652;9.194;2022-12-20T07:47:04;96609.53;;;6.15;77.87
69411;BME280;56604;48.652;9.194;2022-12-20T07:49:30;96607.91;;;6.14;78.04
69411;BME280;56604;48.652;9.194;2022-12-20T07:51:57;96604.25;;;6.22;77.39
69411;BME280;56604;48.652;9.194;2022-12-20T07:54:35;96606.25;;;6.26;77.61
69411;BME280;56604;48.652;9.194;2022-12-20T07:57:06;96613.06;;;6.27;77.83
69411;BME280;56604;48.652;9.194;2022-12-20T07:59:39;96610.34;;;6.41;77.25
69411;BME280;56604;48.652;9.194;2022-12-20T08:02:09;96605.88;;;6.48;76.63
69411;BME280;56604;48.652;9.194;2022-12-20T08:04:36;96609.88;;;6.50;76.80
69411;BME280;56604;48.652;9.194;2022-12-20T08:07:02;96611.19;;;6.60;76.23
69411;BME280;56604;48.652;9.194;2022-12-20T08:09:29;96607.50;;;6.67;76.36
69411;BME280;56604;48.652;9.194;2022-12-20T08:11:56;96612.03;;;6.79;76.27
69411;BME280;56604;48.652;9.194;2022-12-20T08:14:22;96609.75;;;6.89;74.97
69411;BME280;56604;48.652;9.194;2022-12-20T08:16:47;96609.75;;;6.89;75.77
69411;BME280;56604;48.652;9.194;2022-12-20T08:19:12;96606.22;;;6.76;76.26
69411;BME280;56604;48.652;9.194;2022-12-20T08:21:38;96597.66;;;6.69;76.82
69411;BME280;56604;48.652;9.194;2022-12-20T08:24:04;96600.44;;;6.74;76.47
69411;BME280;56604;48.652;9.194;2022-12-20T08:26:29;96603.03;;;6.74;76.04
69411;BME280;56604;48.652;9.194;2022-12-20T08:28:55;96612.81;;;6.79;75.88
69411;BME280;56604;48.652;9.194;2022-12-20T08:31:20;96605.75;;;6.86;75.90
69411;BME280;56604;48.652;9.194;2022-12-20T08:33:46;96600.50;;;6.86;75.54
69411;BME280;56604;48.652;9.194;2022-12-20T08:36:12;96585.97;;;6.90;75.67
69411;BME280;56604;48.652;9.194;2022-12-20T08:38:38;96570.81;;;6.81;75.92
69411;BME280;56604;48.652;9.194;2022-12-20T08:41:06;96572.91;;;6.72;76.21
69411;BME280;56604;48.652;9.194;2022-12-20T08:43:32;96571.75;;;6.86;76.04
69411;BME280;56604;48.652;9.194;2022-12-20T08:45:58;96570.53;;;6.89;75.78
69411;BME280;56604;48.652;9.194;2022-12-20T08:48:24;96561.88;;;6.88;75.39
69411;BME280;56604;48.652;9.194;2022-12-20T08:50:56;96559.03;;;7.08;74.91
69411;BME280;56604;48.652;9.194;2022-12-20T08:53:23;96556.28;;;7.21;74.56
69411;BME280;56604;48.652;9.194;2022-12-20T08:55:48;96564.44;;;7.32;74.09
69411;BME280;56604;48.652;9.194;2022-12-20T08:58:14;96563.72;;;7.55;74.00
69411;BME280;56604;48.652;9.194;2022-12-20T09:00:39;96565.28;;;7.44;73.62
69411;BME280;56604;48.652;9.194;2022-12-20T09:03:05;96559.16;;;7.50;73.33
69411;BME280;56604;48.652;9.194;2022-12-20T09:05:31;96556.78;;;7.49;73.26
69411;BME280;56604;48.652;9.194;2022-12-20T09:07:57;96556.09;;;7.53;73.63
69411;BME280;56604;48.652;9.194;2022-12-20T09:10:22;96569.16;;;7.53;73.47
69411;BME280;56604;48.652;9.194;2022-12-20T09:12:47;96565.22;;;7.62;73.63
69411;BME280;56604;48.652;9.194;2022-12-20T09:15:13;96563.25;;;7.46;73.16
69411;BME280;56604;48.652;9.194;2022-12-20T09:17:38;96566.84;;;7.45;73.27
69411;BME280;56604;48.652;9.194;2022-12-20T09:20:04;96562.78;;;7.49;73.68
69411;BME280;56604;48.652;9.194;2022-12-20T09:22:29;96558.56;;;7.48;73.40
69411;BME280;56604;48.652;9.194;2022-12-20T09:24:55;96556.78;;;7.49;73.39
69411;BME280;56604;48.652;9.194;2022-12-20T09:27:20;96551.88;;;7.52;73.84
69411;BME280;56604;48.652;9.194;2022-12-20T09:29:46;96549.84;;;7.54;73.33
69411;BME280;56604;48.652;9.194;2022-12-20T09:32:13;96554.06;;;7.55;73.47
69411;BME280;56604;48.652;9.194;2022-12-20T09:34:38;96552.13;;;7.62;73.17
69411;BME280;56604;48.652;9.194;2022-12-20T09:37:04;96553.28;;;7.55;73.01
69411;BME280;56604;48.652;9.194;2022-12-20T09:39:29;96558.34;;;7.50;73.43
69411;BME280;56604;48.652;9.194;2022-12-20T09:41:56;96563.06;;;7.59;73.43
69411;BME280;56604;48.652;9.194;2022-12-20T09:44:29;96550.00;;;7.71;73.21
69411;BME280;56604;48.652;9.194;2022-12-20T09:47:21;96546.91;;;7.93;73.19
69411;BME280;56604;48.652;9.194;2022-12-20T09:49:52;96547.34;;;7.89;72.23
69411;BME280;56604;48.652;9.194;2022-12-20T09:58:38;96526.91;;;8.33;71.64
69411;BME280;56604;48.652;9.194;2022-12-20T10:01:15;96520.19;;;8.26;71.37
69411;BME280;56604;48.652;9.194;2022-12-20T10:03:41;96516.91;;;8.42;71.04
69411;BME280;56604;48.652;9.194;2022-12-20T10:08:50;96521.47;;;8.70;70.19
69411;BME280;56604;48.652;9.194;2022-12-20T10:11:39;96514.31;;;8.66;70.04
69411;BME280;56604;48.652;9.194;2022-12-20T10:17:09;96520.34;;;8.54;70.11
69411;BME280;56604;48.652;9.194;2022-12-20T10:19:59;96514.84;;;8.68;69.47
69411;BME280;56604;48.652;9.194;2022-12-20T10:22:42;96508.59;;;8.69;69.00
69411;BME280;56604;48.652;9.194;2022-12-20T10:25:17;96513.03;;;8.56;69.26
69411;BME280;56604;48.652;9.194;2022-12-20T10:27:45;96513.41;;;8.48;69.82
69411;BME280;56604;48.652;9.194;2022-12-20T10:30:16;96501.53;;;8.34;70.18
69411;BME280;56604;48.652;9.194;2022-12-20T10:32:47;96500.38;;;8.30;69.73
69411;BME280;56604;48.652;9.194;2022-12-20T10:35:22;96489.56;;;8.38;70.52
69411;BME280;56604;48.652;9.194;2022-12-20T10:38:10;96497.41;;;8.38;69.95
69411;BME280;56604;48.652;9.194;2022-12-20T10:41:10;96492.84;;;8.22;71.21
69411;BME280;56604;48.652;9.194;2022-12-20T10:43:42;96490.81;;;8.12;70.96
69411;BME280;56604;48.652;9.194;2022-12-20T10:46:09;96496.25;;;8.10;71.40
69411;BME280;56604;48.652;9.194;2022-12-20T10:48:40;96488.97;;;8.13;70.88
69411;BME280;56604;48.652;9.194;2022-12-20T10:53:56;96482.03;;;8.06;72.20
69411;BME280;56604;48.652;9.194;2022-12-20T10:56:23;96475.66;;;8.02;71.13
69411;BME280;56604;48.652;9.194;2022-12-20T10:58:58;96463.84;;;8.11;71.06
69411;BME280;56604;48.652;9.194;2022-12-20T11:01:30;96464.16;;;8.03;70.87
69411;BME280;56604;48.652;9.194;2022-12-20T11:06:39;96469.16;;;8.17;70.75
69411;BME280;56604;48.652;9.194;2022-12-20T11:09:23;96469.63;;;8.14;71.26
69411;BME280;56604;48.652;9.194;2022-12-20T11:14:21;96458.69;;;8.17;71.02
69411;BME280;56604;48.652;9.194;2022-12-20T11:16:49;96445.50;;;8.11;71.38
69411;BME280;56604;48.652;9.194;2022-12-20T11:21:59;96440.47;;;8.22;71.09
69411;BME280;56604;48.652;9.194;2022-12-20T11:24:34;96440.13;;;8.30;71.35
69411;BME280;56604;48.652;9.194;2022-12-20T11:27:15;96430.34;;;8.14;71.69
69411;BME280;56604;48.652;9.194;2022-12-20T11:30:08;96425.91;;;8.26;71.56
69411;BME280;56604;48.652;9.194;2022-12-20T11:35:21;96418.16;;;8.31;71.64
69411;BME280;56604;48.652;9.194;2022-12-20T11:40:32;96411.06;;;8.67;69.48
69411;BME280;56604;48.652;9.194;2022-12-20T11:43:21;96412.69;;;8.85;69.50
69411;BME280;56604;48.652;9.194;2022-12-20T11:48:52;96400.44;;;8.73;68.52
69411;BME280;56604;48.652;9.194;2022-12-20T11:51:26;96399.16;;;8.76;68.80
69411;BME280;56604;48.652;9.194;2022-12-20T11:54:03;96391.09;;;9.06;67.83
69411;BME280;56604;48.652;9.194;2022-12-20T11:56:39;96395.19;;;9.02;68.04
69411;BME280;56604;48.652;9.194;2022-12-20T11:59:19;96387.19;;;9.09;68.12
69411;BME280;56604;48.652;9.194;2022-12-20T12:02:03;96394.41;;;9.01;68.10
69411;BME280;56604;48.652;9.194;2022-12-20T12:04:33;96395.44;;;9.00;68.06
69411;BME280;56604;48.652;9.194;2022-12-20T12:07:08;96396.91;;;9.08;68.34
69411;BME280;56604;48.652;9.194;2022-12-20T12:12:45;96385.91;;;8.94;68.83
69411;BME280;56604;48.652;9.194;2022-12-20T12:15:34;96379.19;;;8.87;68.85
69411;BME280;56604;48.652;9.194;2022-12-20T12:18:23;96375.53;;;8.88;69.05
69411;BME280;56604;48.652;9.194;2022-12-20T12:23:47;96378.19;;;8.76;69.30
69411;BME280;56604;48.652;9.194;2022-12-20T12:26:21;96381.41;;;8.78;69.23
69411;BME280;56604;48.652;9.194;2022-12-20T12:28:52;96382.44;;;8.77;69.13
69411;BME280;56604;48.652;9.194;2022-12-20T12:34:47;96377.47;;;8.92;69.51
69411;BME280;56604;48.652;9.194;2022-12-20T12:37:45;96384.00;;;9.07;69.33
69411;BME280;56604;48.652;9.194;2022-12-20T12:40:43;96383.72;;;9.20;68.86
69411;BME280;56604;48.652;9.194;2022-12-20T12:43:43;96375.16;;;9.41;68.35
69411;BME280;56604;48.652;9.194;2022-12-20T12:46:17;96370.06;;;9.52;67.92
69411;BME280;56604;48.652;9.194;2022-12-20T12:49:03;96367.06;;;9.60;67.54
69411;BME280;56604;48.652;9.194;2022-12-20T12:51:38;96363.06;;;9.74;66.34
69411;BME280;56604;48.652;9.194;2022-12-20T12:56:38;96343.66;;;9.41;66.32
69411;BME280;56604;48.652;9.194;2022-12-20T13:01:53;96348.38;;;9.22;67.07
69411;BME280;56604;48.652;9.194;2022-12-20T13:09:20;96328.72;;;9.25;67.34
69411;BME280;56604;48.652;9.194;2022-12-20T13:11:47;96325.53;;;9.23;67.51
69411;BME280;56604;48.652;9.194;2022-12-20T13:16:50;96324.88;;;9.16;68.14
69411;BME280;56604;48.652;9.194;2022-12-20T13:19:37;96336.50;;;9.20;67.22
69411;BME280;56604;48.652;9.194;2022-12-20T13:40:43;96341.41;;;8.42;70.38
69411;BME280;56604;48.652;9.194;2022-12-20T13:45:50;96329.56;;;8.28;71.84
69411;BME280;56604;48.652;9.194;2022-12-20T13:48:18;96323.06;;;8.30;70.97
69411;BME280;56604;48.652;9.194;2022-12-20T13:50:49;96318.63;;;8.31;70.88
69411;BME280;56604;48.652;9.194;2022-12-20T13:53:18;96315.56;;;8.34;70.92
69411;BME280;56604;48.652;9.194;2022-12-20T13:55:44;96312.59;;;8.30;71.58
69411;BME280;56604;48.652;9.194;2022-12-20T13:58:19;96305.34;;;8.21;71.18
69411;BME280;56604;48.652;9.194;2022-12-20T14:00:46;96300.56;;;8.18;71.18
69411;BME280;56604;48.652;9.194;2022-12-20T14:03:26;96290.19;;;8.23;70.49
69411;BME280;56604;48.652;9.194;2022-12-20T14:05:57;96295.63;;;8.33;70.49
69411;BME280;56604;48.652;9.194;2022-12-20T14:08:26;96288.56;;;8.45;70.12
69411;BME280;56604;48.652;9.194;2022-12-20T14:10:53;96287.53;;;8.46;69.91
69411;BME280;56604;48.652;9.194;2022-12-20T14:13:21;96292.72;;;8.58;69.46
69411;BME280;56604;48.652;9.194;2022-12-20T14:15:47;96289.94;;;8.65;68.35
69411;BME280;56604;48.652;9.194;2022-12-20T14:18:24;96282.91;;;8.82;68.50
69411;BME280;56604;48.652;9.194;2022-12-20T14:20:52;96277.75;;;8.87;68.53
69411;BME280;56604;48.652;9.194;2022-12-20T14:23:22;96283.25;;;9.03;67.53
69411;BME280;56604;48.652;9.194;2022-12-20T14:25:54;96276.97;;;9.04;67.79
69411;BME280;56604;48.652;9.194;2022-12-20T14:30:56;96267.50;;;8.86;68.79
69411;BME280;56604;48.652;9.194;2022-12-20T14:33:27;96270.34;;;8.84;68.23
69411;BME280;56604;48.652;9.194;2022-12-20T14:35:53;96272.03;;;8.90;68.70
69411;BME280;56604;48.652;9.194;2022-12-20T14:38:28;96269.41;;;8.90;69.34
69411;BME280;56604;48.652;9.194;2022-12-20T14:40:54;96276.88;;;8.98;68.54
69411;BME280;56604;48.652;9.194;2022-12-20T14:43:53;96277.66;;;8.82;68.49
69411;BME280;56604;48.652;9.194;2022-12-20T14:46:20;96278.28;;;8.72;68.98